createdAt,value
2022-08-25T00:00:32.509Z,26.00
2022-08-25T00:03:00.742Z,26.00
2022-08-25T00:05:32.435Z,25.90
2022-08-25T00:08:02.124Z,25.90
2022-08-25T00:10:31.295Z,25.90
2022-08-25T00:13:01.306Z,25.90
2022-08-25T00:15:32.277Z,25.90
2022-08-25T00:18:02.292Z,25.80
2022-08-25T00:20:31.385Z,25.80
2022-08-25T00:22:59.677Z,25.80
2022-08-25T00:25:28.268Z,25.80
2022-08-25T00:27:57.295Z,25.80
2022-08-25T00:30:28.504Z,25.70
2022-08-25T00:32:57.669Z,25.70
2022-08-25T00:35:27.895Z,25.60
2022-08-25T00:37:57.083Z,25.60
2022-08-25T00:40:28.392Z,25.50
2022-08-25T00:42:57.098Z,25.50
2022-08-25T00:45:27.127Z,25.50
2022-08-25T00:47:56.686Z,25.50
2022-08-25T00:50:30.095Z,25.40
2022-08-25T00:53:05.670Z,25.40
2022-08-25T00:55:39.916Z,25.40
2022-08-25T00:58:14.549Z,25.30
2022-08-25T01:00:48.328Z,25.30
2022-08-25T01:03:18.347Z,25.30
2022-08-25T01:05:48.451Z,25.30
2022-08-25T01:08:21.179Z,25.20
2022-08-25T01:10:51.867Z,25.20
2022-08-25T01:13:24.809Z,25.20
2022-08-25T01:15:57.472Z,25.10
2022-08-25T01:18:27.266Z,25.10
2022-08-25T01:20:57.946Z,25.10
2022-08-25T01:23:28.282Z,25.10
2022-08-25T01:26:03.567Z,25.10
2022-08-25T01:28:32.296Z,25.10
2022-08-25T01:31:01.636Z,25.00
2022-08-25T01:33:30.207Z,25.00
2022-08-25T01:36:00.001Z,25.00
2022-08-25T01:38:28.256Z,25.00
2022-08-25T01:40:56.505Z,24.90
2022-08-25T01:43:38.422Z,24.90
2022-08-25T01:46:06.929Z,24.90
2022-08-25T01:48:35.354Z,24.90
2022-08-25T01:51:05.264Z,24.90
2022-08-25T01:53:34.165Z,24.90
2022-08-25T01:56:13.881Z,24.80
2022-08-25T01:58:45.941Z,24.80
2022-08-25T02:01:19.447Z,24.80
2022-08-25T02:03:51.358Z,24.70
2022-08-25T02:06:28.772Z,24.70
2022-08-25T02:09:01.154Z,24.70
2022-08-25T02:11:30.228Z,24.70
2022-08-25T02:13:59.128Z,24.60
2022-08-25T02:16:30.765Z,24.60
2022-08-25T02:18:59.532Z,24.50
2022-08-25T02:21:29.846Z,24.50
2022-08-25T02:23:58.238Z,24.40
2022-08-25T02:26:27.078Z,24.40
2022-08-25T02:28:55.618Z,24.40
2022-08-25T02:31:26.384Z,24.40
2022-08-25T02:33:55.936Z,24.30
2022-08-25T02:36:24.898Z,24.30
2022-08-25T02:38:54.491Z,24.20
2022-08-25T02:41:30.744Z,24.20
2022-08-25T02:44:01.259Z,24.20
2022-08-25T02:46:31.107Z,24.10
2022-08-25T02:49:00.006Z,24.10
2022-08-25T02:51:30.174Z,24.10
2022-08-25T02:54:03.167Z,24.00
2022-08-25T02:56:32.609Z,24.00
2022-08-25T02:59:01.124Z,24.00
2022-08-25T03:01:30.189Z,24.00
2022-08-25T03:03:59.103Z,23.90
2022-08-25T03:06:28.055Z,24.00
2022-08-25T03:08:57.213Z,24.00
2022-08-25T03:11:27.028Z,23.90
2022-08-25T03:13:55.848Z,23.90
2022-08-25T03:16:27.899Z,23.90
2022-08-25T03:18:57.522Z,23.90
2022-08-25T03:21:26.202Z,23.80
2022-08-25T03:23:54.589Z,23.90
2022-08-25T03:26:40.230Z,23.80
2022-08-25T03:29:10.548Z,23.80
2022-08-25T03:31:39.269Z,23.80
2022-08-25T03:34:07.733Z,23.80
2022-08-25T03:36:36.392Z,23.80
2022-08-25T03:39:06.363Z,23.80
2022-08-25T03:41:35.155Z,23.80
2022-08-25T03:44:05.389Z,23.70
2022-08-25T03:46:40.086Z,23.70
2022-08-25T03:49:11.457Z,23.70
2022-08-25T03:51:46.028Z,23.70
2022-08-25T03:54:16.581Z,23.60
2022-08-25T03:56:45.447Z,23.60
2022-08-25T03:59:14.508Z,23.60
2022-08-25T04:01:46.110Z,23.60
2022-08-25T04:04:16.487Z,23.60
2022-08-25T04:06:45.836Z,23.60
2022-08-25T04:09:14.445Z,23.60
2022-08-25T04:11:43.202Z,23.60
2022-08-25T04:14:16.699Z,23.50
2022-08-25T04:16:47.190Z,23.60
2022-08-25T04:19:15.576Z,23.60
2022-08-25T04:21:44.495Z,23.50
2022-08-25T04:24:14.590Z,23.50
2022-08-25T04:26:46.233Z,23.50
2022-08-25T04:29:17.101Z,23.40
2022-08-25T04:31:50.221Z,23.50
2022-08-25T04:34:30.514Z,23.50
2022-08-25T04:37:06.291Z,23.40
2022-08-25T04:39:34.707Z,23.40
2022-08-25T04:42:03.720Z,23.40
2022-08-25T04:44:32.902Z,23.30
2022-08-25T04:47:04.075Z,23.30
2022-08-25T04:49:32.674Z,23.30
2022-08-25T04:52:01.501Z,23.20
2022-08-25T04:54:29.830Z,23.10
2022-08-25T04:57:05.961Z,23.20
2022-08-25T04:59:34.226Z,23.10
2022-08-25T05:02:06.527Z,23.20
2022-08-25T05:04:37.105Z,23.20
2022-08-25T05:07:06.450Z,23.30
2022-08-25T05:09:34.911Z,23.50
2022-08-25T05:12:04.474Z,23.70
2022-08-25T05:14:33.049Z,23.90
2022-08-25T05:17:04.107Z,24.20
2022-08-25T05:19:32.388Z,24.40
2022-08-25T05:22:00.611Z,24.70
2022-08-25T05:24:29.614Z,24.90
2022-08-25T05:26:58.286Z,25.20
2022-08-25T05:29:27.039Z,25.40
2022-08-25T05:31:55.494Z,25.60
2022-08-25T05:34:25.731Z,25.90
2022-08-25T05:36:54.610Z,26.10
2022-08-25T05:39:22.964Z,26.40
2022-08-25T05:41:55.098Z,26.60
2022-08-25T05:44:23.381Z,26.80
2022-08-25T05:46:52.507Z,26.90
2022-08-25T05:49:20.864Z,26.80
2022-08-25T05:51:50.422Z,26.80
2022-08-25T05:54:18.840Z,26.60
2022-08-25T05:56:48.237Z,26.40
2022-08-25T05:59:16.554Z,26.30
2022-08-25T06:02:02.547Z,26.20
2022-08-25T06:04:30.989Z,26.00
2022-08-25T06:07:01.378Z,25.80
2022-08-25T06:09:30.151Z,25.70
2022-08-25T06:11:58.607Z,25.60
2022-08-25T06:14:27.633Z,25.60
2022-08-25T06:16:56.948Z,25.50
2022-08-25T06:19:25.653Z,25.50
2022-08-25T06:21:56.258Z,25.40
2022-08-25T06:24:27.606Z,25.40
2022-08-25T06:26:56.868Z,25.20
2022-08-25T06:29:25.318Z,25.20
2022-08-25T06:31:54.063Z,25.20
2022-08-25T06:34:23.963Z,25.30
2022-08-25T06:36:53.007Z,25.30
2022-08-25T06:39:21.611Z,25.40
2022-08-25T06:41:54.308Z,25.40
2022-08-25T06:44:23.168Z,25.50
2022-08-25T06:46:52.172Z,25.50
2022-08-25T06:49:20.637Z,25.60
2022-08-25T06:51:49.589Z,25.60
2022-08-25T06:54:18.024Z,25.70
2022-08-25T06:56:46.928Z,25.70
2022-08-25T06:59:19.858Z,25.80
2022-08-25T07:01:49.624Z,25.80
2022-08-25T07:04:18.712Z,25.90
2022-08-25T07:06:47.171Z,26.00
2022-08-25T07:09:16.199Z,26.10
2022-08-25T07:11:45.898Z,26.20
2022-08-25T07:14:18.375Z,26.30
2022-08-25T07:16:50.281Z,26.40
2022-08-25T07:19:21.439Z,26.50
2022-08-25T07:21:54.149Z,26.60
2022-08-25T07:24:23.861Z,26.80
2022-08-25T07:26:52.842Z,26.90
2022-08-25T07:29:32.854Z,27.00
2022-08-25T07:32:02.483Z,27.20
2022-08-25T07:34:51.857Z,27.30
2022-08-25T07:40:13.743Z,27.70
2022-08-25T07:42:43.019Z,27.80
2022-08-25T07:45:15.587Z,28.10
2022-08-25T07:47:51.596Z,28.30
2022-08-25T07:50:21.733Z,28.50
2022-08-25T07:52:55.410Z,28.70
2022-08-25T07:55:24.874Z,29.00
2022-08-25T07:57:55.999Z,29.30
2022-08-25T08:00:30.142Z,29.50
2022-08-25T08:02:59.321Z,29.80
2022-08-25T08:05:28.694Z,30.00
2022-08-25T08:07:57.580Z,30.20
2022-08-25T08:10:54.173Z,30.40
2022-08-25T08:13:18.015Z,30.60
2022-08-25T08:15:48.610Z,30.80
2022-08-25T08:18:18.493Z,30.90
2022-08-25T08:20:48.497Z,31.10
2022-08-25T08:23:19.676Z,31.30
2022-08-25T08:25:48.192Z,31.40
2022-08-25T08:28:16.521Z,31.60
2022-08-25T08:30:53.643Z,31.80
2022-08-25T08:33:25.965Z,32.00
2022-08-25T08:36:05.118Z,32.10
2022-08-25T08:38:34.570Z,32.30
2022-08-25T08:41:48.900Z,32.40
2022-08-25T08:44:29.509Z,32.70
2022-08-25T08:47:09.076Z,32.80
2022-08-25T08:49:49.445Z,33.00
2022-08-25T08:52:24.360Z,33.30
2022-08-25T08:55:06.423Z,33.40
2022-08-25T08:57:43.895Z,33.50
2022-08-25T09:00:13.389Z,33.80
2022-08-25T09:02:51.954Z,33.90
2022-08-25T09:05:25.860Z,33.90
2022-08-25T09:07:58.562Z,34.00
2022-08-25T09:10:36.849Z,34.20
2022-08-25T09:13:15.605Z,34.40
2022-08-25T09:16:23.345Z,34.50
2022-08-25T09:19:21.408Z,34.70
2022-08-25T09:22:00.006Z,34.90
2022-08-25T09:24:49.073Z,34.90
2022-08-25T09:27:28.004Z,35.10
2022-08-25T09:30:05.350Z,35.20
2022-08-25T09:32:39.702Z,35.30
2022-08-25T09:35:12.015Z,35.40
2022-08-25T09:37:41.579Z,35.40
2022-08-25T09:40:12.695Z,35.40
2022-08-25T09:42:57.707Z,35.50
2022-08-25T09:45:42.506Z,35.60
2022-08-25T09:48:26.879Z,35.70
2022-08-25T09:51:02.524Z,35.70
2022-08-25T09:53:33.956Z,35.80
2022-08-25T09:56:07.606Z,35.90
2022-08-25T09:58:36.194Z,36.10
2022-08-25T10:01:14.518Z,36.20
2022-08-25T10:04:02.115Z,36.30
2022-08-25T10:06:37.668Z,36.40
2022-08-25T10:09:09.649Z,36.40
2022-08-25T10:11:43.547Z,36.50
2022-08-25T10:14:38.640Z,36.60
2022-08-25T10:17:24.790Z,36.60
2022-08-25T10:20:15.451Z,36.70
2022-08-25T10:22:45.345Z,36.70
2022-08-25T10:25:23.394Z,36.70
2022-08-25T10:28:09.040Z,36.70
2022-08-25T10:30:52.915Z,36.80
2022-08-25T10:33:30.450Z,36.90
2022-08-25T10:36:02.968Z,37.00
2022-08-25T10:38:39.746Z,37.00
2022-08-25T10:41:41.822Z,37.10
2022-08-25T10:44:43.911Z,37.20
2022-08-25T10:47:36.113Z,37.30
2022-08-25T10:50:13.937Z,37.40
2022-08-25T10:53:01.799Z,37.50
2022-08-25T10:55:43.251Z,37.60
2022-08-25T10:58:23.451Z,37.80
2022-08-25T11:01:02.274Z,37.90
2022-08-25T11:03:49.259Z,38.10
2022-08-25T11:06:23.800Z,38.20
2022-08-25T11:08:56.461Z,38.10
2022-08-25T11:11:32.585Z,38.20
2022-08-25T11:14:11.122Z,38.20
2022-08-25T11:16:45.229Z,38.20
2022-08-25T11:19:22.142Z,38.20
2022-08-25T11:21:57.008Z,38.20
2022-08-25T11:24:41.930Z,38.30
2022-08-25T11:27:18.576Z,38.40
2022-08-25T11:30:07.000Z,38.40
2022-08-25T11:32:36.965Z,38.50
2022-08-25T11:35:09.514Z,38.50
2022-08-25T11:37:48.002Z,38.60
2022-08-25T11:40:40.348Z,38.60
2022-08-25T11:43:40.538Z,38.60
2022-08-25T11:46:29.316Z,38.50
2022-08-25T11:49:16.784Z,38.40
2022-08-25T11:51:51.932Z,38.30
2022-08-25T11:54:26.504Z,38.10
2022-08-25T11:57:00.370Z,38.10
2022-08-25T12:00:07.157Z,38.00
2022-08-25T12:02:42.591Z,38.00
2022-08-25T12:05:29.022Z,38.10
2022-08-25T12:08:23.115Z,38.10
2022-08-25T12:10:59.305Z,38.10
2022-08-25T12:13:43.107Z,38.10
2022-08-25T12:16:44.029Z,38.10
2022-08-25T12:19:31.093Z,38.00
2022-08-25T12:22:55.319Z,38.00
2022-08-25T12:25:51.323Z,37.90
2022-08-25T12:28:49.855Z,37.90
2022-08-25T12:31:45.090Z,38.00
2022-08-25T12:34:38.247Z,38.00
2022-08-25T12:37:14.037Z,38.00
2022-08-25T12:39:47.768Z,37.90
2022-08-25T12:42:31.215Z,37.80
2022-08-25T12:45:33.950Z,37.70
2022-08-25T12:48:56.725Z,37.60
2022-08-25T12:51:28.420Z,37.50
2022-08-25T12:54:12.214Z,37.40
2022-08-25T12:56:49.182Z,37.30
2022-08-25T12:59:21.802Z,37.30
2022-08-25T13:02:51.813Z,37.30
2022-08-25T13:06:06.443Z,37.20
2022-08-25T13:09:14.247Z,37.10
2022-08-25T13:11:49.841Z,37.10
2022-08-25T13:14:27.554Z,37.10
2022-08-25T13:16:58.339Z,37.00
2022-08-25T13:19:34.614Z,36.90
2022-08-25T13:22:15.921Z,36.80
2022-08-25T13:24:50.435Z,36.70
2022-08-25T13:27:28.419Z,36.60
2022-08-25T13:30:03.602Z,36.60
2022-08-25T13:32:35.730Z,36.60
2022-08-25T13:35:17.701Z,36.50
2022-08-25T13:37:48.958Z,36.50
2022-08-25T13:40:26.706Z,36.40
2022-08-25T13:43:01.096Z,36.30
2022-08-25T13:45:41.194Z,36.30
2022-08-25T13:48:21.241Z,36.30
2022-08-25T13:50:53.141Z,36.30
2022-08-25T13:53:26.164Z,36.20
2022-08-25T13:55:59.838Z,36.20
2022-08-25T13:58:44.588Z,36.20
2022-08-25T14:01:23.261Z,36.20
2022-08-25T14:04:28.886Z,36.10
2022-08-25T14:07:34.043Z,35.90
2022-08-25T14:10:07.677Z,35.70
2022-08-25T14:12:46.176Z,35.70
2022-08-25T14:15:32.398Z,35.70
2022-08-25T14:18:07.923Z,35.80
2022-08-25T14:20:37.994Z,35.80
2022-08-25T14:23:12.756Z,35.80
2022-08-25T14:25:45.213Z,35.90
2022-08-25T14:28:19.055Z,36.00
2022-08-25T14:30:51.844Z,36.10
2022-08-25T14:33:24.349Z,36.10
2022-08-25T14:35:55.427Z,36.20
2022-08-25T14:38:24.355Z,36.20
2022-08-25T14:40:53.392Z,36.20
2022-08-25T14:43:24.845Z,36.10
2022-08-25T14:46:02.509Z,36.00
2022-08-25T14:48:37.018Z,35.80
2022-08-25T14:51:06.495Z,35.80
2022-08-25T14:53:35.154Z,35.80
2022-08-25T14:56:08.473Z,35.80
2022-08-25T14:58:51.197Z,35.80
2022-08-25T15:01:28.541Z,35.80
2022-08-25T15:04:03.434Z,35.70
2022-08-25T15:06:32.250Z,35.60
2022-08-25T15:09:08.187Z,35.60
2022-08-25T15:11:41.476Z,35.60
2022-08-25T15:14:15.446Z,35.60
2022-08-25T15:16:47.609Z,35.60
2022-08-25T15:19:20.782Z,35.60
2022-08-25T15:21:49.748Z,35.60
2022-08-25T15:24:19.493Z,35.50
2022-08-25T15:29:29.672Z,35.30
2022-08-25T15:31:58.536Z,35.20
2022-08-25T15:34:27.517Z,35.20
2022-08-25T15:36:58.286Z,35.20
2022-08-25T15:39:27.846Z,35.30
2022-08-25T15:41:57.210Z,35.30
2022-08-25T15:44:29.693Z,35.30
2022-08-25T15:46:58.429Z,35.30
2022-08-25T15:49:29.704Z,35.30
2022-08-25T15:51:59.662Z,35.30
2022-08-25T15:54:28.854Z,35.30
2022-08-25T15:56:59.883Z,35.30
2022-08-25T15:59:30.531Z,35.30
2022-08-25T16:01:59.751Z,35.30
2022-08-25T16:04:30.166Z,35.30
2022-08-25T16:06:59.431Z,35.30
2022-08-25T16:09:27.674Z,35.20
2022-08-25T16:11:59.009Z,35.10
2022-08-25T16:14:32.337Z,35.10
2022-08-25T16:17:00.643Z,35.10
2022-08-25T16:19:29.292Z,35.10
2022-08-25T16:21:58.316Z,35.20
2022-08-25T16:24:26.969Z,35.10
2022-08-25T16:27:00.219Z,35.10
2022-08-25T16:29:42.428Z,35.00
2022-08-25T16:32:13.459Z,35.00
2022-08-25T16:34:44.282Z,34.90
2022-08-25T16:37:13.541Z,34.80
2022-08-25T16:39:45.407Z,34.80
2022-08-25T16:42:15.365Z,34.80
2022-08-25T16:44:44.958Z,34.70
2022-08-25T16:47:14.358Z,34.70
2022-08-25T16:49:46.322Z,34.70
2022-08-25T16:52:33.940Z,34.70
2022-08-25T16:55:14.979Z,34.60
2022-08-25T16:57:45.351Z,34.60
2022-08-25T17:00:21.790Z,34.50
2022-08-25T17:02:54.209Z,34.40
2022-08-25T17:05:22.499Z,34.40
2022-08-25T17:08:05.021Z,34.40
2022-08-25T17:10:37.519Z,34.30
2022-08-25T17:13:06.222Z,34.30
2022-08-25T17:15:40.837Z,34.20
2022-08-25T17:18:11.265Z,34.20
2022-08-25T17:20:39.622Z,34.20
2022-08-25T17:23:12.379Z,34.10
2022-08-25T17:25:43.478Z,34.10
2022-08-25T17:28:12.916Z,34.00
2022-08-25T17:30:43.194Z,34.00
2022-08-25T17:33:11.674Z,33.90
2022-08-25T17:35:41.340Z,33.80
2022-08-25T17:38:09.850Z,33.80
2022-08-25T17:40:38.666Z,33.80
2022-08-25T17:43:09.139Z,33.70
2022-08-25T17:45:38.199Z,33.70
2022-08-25T17:48:09.966Z,33.60
2022-08-25T17:50:40.644Z,33.50
2022-08-25T17:53:09.481Z,33.40
2022-08-25T17:55:39.746Z,33.30
2022-08-25T17:58:12.082Z,33.20
2022-08-25T18:00:44.048Z,33.10
2022-08-25T18:03:13.932Z,33.00
2022-08-25T18:05:42.229Z,32.90
2022-08-25T18:08:10.952Z,32.80
2022-08-25T18:10:39.819Z,32.80
2022-08-25T18:13:08.098Z,32.70
2022-08-25T18:15:36.790Z,32.70
2022-08-25T18:18:06.495Z,32.60
2022-08-25T18:20:36.457Z,32.50
2022-08-25T18:23:09.658Z,32.40
2022-08-25T18:25:41.848Z,32.40
2022-08-25T18:28:11.514Z,32.30
2022-08-25T18:30:40.516Z,32.20
2022-08-25T18:33:09.128Z,32.20
2022-08-25T18:35:39.296Z,32.10
2022-08-25T18:38:25.017Z,32.00
2022-08-25T18:40:57.761Z,31.90
2022-08-25T18:43:26.532Z,31.90
2022-08-25T18:45:55.134Z,31.80
2022-08-25T18:48:26.580Z,31.70
2022-08-25T18:50:57.056Z,31.60
2022-08-25T18:53:30.083Z,31.50
2022-08-25T18:55:58.629Z,31.40
2022-08-25T18:58:27.835Z,31.30
2022-08-25T19:00:56.381Z,31.20
2022-08-25T19:03:25.180Z,31.10
2022-08-25T19:05:57.598Z,31.00
2022-08-25T19:08:26.453Z,30.90
2022-08-25T19:10:56.270Z,30.70
2022-08-25T19:13:24.485Z,30.60
2022-08-25T19:15:53.487Z,30.50
2022-08-25T19:18:25.903Z,30.40
2022-08-25T19:20:59.266Z,30.20
2022-08-25T19:23:27.946Z,30.10
2022-08-25T19:25:56.228Z,30.00
2022-08-25T19:28:27.302Z,29.90
2022-08-25T19:30:55.694Z,29.90
2022-08-25T19:33:42.774Z,29.80
2022-08-25T19:36:14.949Z,29.60
2022-08-25T19:38:44.131Z,29.60
2022-08-25T19:41:14.910Z,29.50
2022-08-25T19:43:55.198Z,29.40
2022-08-25T19:46:33.052Z,29.30
2022-08-25T19:49:08.489Z,29.10
2022-08-25T19:51:44.229Z,29.10
2022-08-25T19:54:15.160Z,29.00
2022-08-25T19:56:54.898Z,28.90
2022-08-25T19:59:25.758Z,28.80
2022-08-25T20:01:54.445Z,28.70
2022-08-25T20:04:24.504Z,28.60
2022-08-25T20:06:55.565Z,28.50
2022-08-25T20:09:39.136Z,28.30
2022-08-25T20:12:11.826Z,28.20
2022-08-25T20:14:41.363Z,28.20
2022-08-25T20:17:14.508Z,28.20
2022-08-25T20:19:53.599Z,28.20
2022-08-25T20:22:26.378Z,28.10
2022-08-25T20:24:58.258Z,28.10
2022-08-25T20:27:33.543Z,28.00
2022-08-25T20:30:02.543Z,28.00
2022-08-25T20:32:32.626Z,27.80
2022-08-25T20:35:01.979Z,27.70
2022-08-25T20:37:33.943Z,27.70
2022-08-25T20:40:02.729Z,27.60
2022-08-25T20:42:31.444Z,27.60
2022-08-25T20:45:00.247Z,27.60
2022-08-25T20:47:29.254Z,27.60
2022-08-25T20:50:02.284Z,27.50
2022-08-25T20:52:37.338Z,27.50
2022-08-25T20:55:08.929Z,27.50
2022-08-25T20:57:37.954Z,27.60
2022-08-25T21:00:09.195Z,27.60
2022-08-25T21:02:37.979Z,27.60
2022-08-25T21:05:08.762Z,27.60
2022-08-25T21:07:38.386Z,27.50
2022-08-25T21:10:10.761Z,27.50
2022-08-25T21:12:43.011Z,27.40
2022-08-25T21:15:12.785Z,27.40
2022-08-25T21:17:41.128Z,27.30
2022-08-25T21:20:11.294Z,27.30
2022-08-25T21:22:40.851Z,27.20
2022-08-25T21:25:10.894Z,27.10
2022-08-25T21:27:39.089Z,27.10
2022-08-25T21:30:09.087Z,27.10
2022-08-25T21:32:37.684Z,27.00
2022-08-25T21:35:07.772Z,27.00
2022-08-25T21:37:36.356Z,26.90
2022-08-25T21:40:08.743Z,26.90
2022-08-25T21:42:37.014Z,26.90
2022-08-25T21:45:07.670Z,26.80
2022-08-25T21:47:42.338Z,26.80
2022-08-25T21:50:12.594Z,26.80
2022-08-25T21:52:41.216Z,26.70
2022-08-25T21:55:15.825Z,26.70
2022-08-25T21:57:44.676Z,26.70
2022-08-25T22:00:15.140Z,26.70
2022-08-25T22:02:45.825Z,26.70
2022-08-25T22:05:14.273Z,26.70
2022-08-25T22:07:43.998Z,26.60
2022-08-25T22:10:17.908Z,26.50
2022-08-25T22:12:47.238Z,26.50
2022-08-25T22:15:16.843Z,26.40
2022-08-25T22:17:48.069Z,26.40
2022-08-25T22:20:17.601Z,26.30
2022-08-25T22:22:45.851Z,26.30
2022-08-25T22:25:15.822Z,26.20
2022-08-25T22:27:44.597Z,26.20
2022-08-25T22:30:14.377Z,26.20
2022-08-25T22:32:42.956Z,26.10
2022-08-25T22:35:14.012Z,26.10
2022-08-25T22:37:42.856Z,26.10
2022-08-25T22:40:12.766Z,26.00
2022-08-25T22:42:47.396Z,26.00
2022-08-25T22:45:16.231Z,25.90
2022-08-25T22:47:45.137Z,25.90
2022-08-25T22:50:13.890Z,25.90
2022-08-25T22:52:45.516Z,25.90
2022-08-25T22:55:14.125Z,25.90
2022-08-25T22:57:45.977Z,25.80
2022-08-25T23:00:16.921Z,25.80
2022-08-25T23:02:46.159Z,25.70
2022-08-25T23:05:16.681Z,25.60
2022-08-25T23:07:45.022Z,25.60
2022-08-25T23:10:15.498Z,25.60
2022-08-25T23:12:45.079Z,25.60
2022-08-25T23:15:14.288Z,25.50
2022-08-25T23:17:42.952Z,25.50
2022-08-25T23:20:25.947Z,25.50
2022-08-25T23:22:55.482Z,25.50
2022-08-25T23:25:24.926Z,25.40
2022-08-25T23:27:54.613Z,25.40
2022-08-25T23:30:22.986Z,25.30
2022-08-25T23:32:51.224Z,25.30
2022-08-25T23:35:22.040Z,25.30
2022-08-25T23:37:51.345Z,25.30
2022-08-25T23:40:19.824Z,25.30
2022-08-25T23:42:48.363Z,25.30
2022-08-25T23:45:18.400Z,25.30
2022-08-25T23:47:46.619Z,25.30
2022-08-25T23:50:18.049Z,25.40
2022-08-25T23:52:46.445Z,25.40
2022-08-25T23:55:14.683Z,25.40
2022-08-25T23:57:43.925Z,25.40
